Time;durP1;ratioP1;P1;durP2;ratioP2;P2;SDS_P1;SDS_P2;PMS_P1;PMS_P2;Temp;Humidity;BMP_temperature;BMP_pressure;BME280_temperature;BME280_humidity;BME280_pressure;Samples;Min_cycle;Max_cycle;Signal;HPM_P1;HPM_P2
2023/08/21 00:00:15;;;;;;;4.72;4.10;;;;;;;21.72;78.07;101489.59;5094362;28;20210;-85
2023/08/21 00:02:42;;;;;;;9.20;3.88;;;;;;;21.65;78.36;101497.50;5093748;28;20228;-85
2023/08/21 00:05:09;;;;;;;4.60;3.85;;;;;;;21.59;78.33;101495.38;5079983;28;20269;-85
2023/08/21 00:07:36;;;;;;;5.03;3.55;;;;;;;21.52;79.10;101505.09;5093106;28;20242;-85
2023/08/21 00:10:02;;;;;;;3.65;3.35;;;;;;;21.45;79.39;101499.41;5094250;28;20203;-85
2023/08/21 00:12:29;;;;;;;4.97;3.50;;;;;;;21.42;79.64;101501.56;5094547;28;20204;-85
2023/08/21 00:14:55;;;;;;;7.40;3.88;;;;;;;21.40;80.16;101501.69;5093534;28;20228;-86
2023/08/21 00:17:23;;;;;;;5.32;3.58;;;;;;;21.37;79.99;101496.56;5093788;28;20204;-85
2023/08/21 00:19:50;;;;;;;4.55;3.65;;;;;;;21.33;80.18;101491.59;5093978;28;20701;-84
2023/08/21 00:22:16;;;;;;;4.22;3.38;;;;;;;21.22;80.82;101487.19;5093896;28;20230;-85
2023/08/21 00:24:43;;;;;;;5.78;4.07;;;;;;;21.19;81.40;101478.47;5093964;28;20231;-85
2023/08/21 00:27:10;;;;;;;8.52;3.88;;;;;;;21.12;81.46;101486.34;5094679;28;20692;-85
2023/08/21 00:29:36;;;;;;;5.65;4.13;;;;;;;21.01;81.80;101489.19;5094020;28;20207;-86
2023/08/21 00:32:03;;;;;;;5.83;3.83;;;;;;;20.95;82.51;101492.50;5094311;28;20223;-85
2023/08/21 00:34:31;;;;;;;4.43;4.05;;;;;;;20.92;82.58;101481.94;5093926;28;20718;-85
2023/08/21 00:36:57;;;;;;;4.07;3.67;;;;;;;20.87;83.09;101486.94;5094091;28;20208;-85
2023/08/21 00:39:24;;;;;;;6.95;3.38;;;;;;;20.82;83.32;101475.66;5093435;28;20203;-86
2023/08/21 00:41:50;;;;;;;3.63;3.33;;;;;;;20.76;83.24;101479.81;5094035;28;20740;-87
2023/08/21 00:44:16;;;;;;;4.43;3.30;;;;;;;20.71;83.25;101479.38;5094130;28;20231;-86
2023/08/21 00:46:43;;;;;;;3.23;3.00;;;;;;;20.63;83.26;101474.66;5087165;28;20199;-86
2023/08/21 00:49:10;;;;;;;4.70;3.70;;;;;;;20.57;83.04;101469.84;5092857;28;20200;-86
2023/08/21 00:51:38;;;;;;;7.23;3.60;;;;;;;20.52;82.47;101469.41;5093002;28;20202;-84
2023/08/21 00:54:05;;;;;;;3.75;3.40;;;;;;;20.47;82.34;101465.41;5094017;28;20205;-86
2023/08/21 00:56:32;;;;;;;5.83;3.43;;;;;;;20.42;82.05;101466.69;5093640;28;20206;-85
2023/08/21 00:58:58;;;;;;;2.92;2.70;;;;;;;20.35;82.08;101475.47;5093345;28;20261;-85
2023/08/21 01:01:26;;;;;;;7.10;3.17;;;;;;;20.29;82.17;101468.78;5093286;28;20229;-85
2023/08/21 01:03:52;;;;;;;4.63;3.03;;;;;;;20.22;82.82;101469.50;5092638;28;20199;-85
2023/08/21 01:06:20;;;;;;;4.33;3.30;;;;;;;20.11;83.78;101463.19;5093280;28;20570;-85
2023/08/21 01:08:58;;;;;;;4.10;3.00;;;;;;;20.05;84.78;101469.16;5092869;28;20209;-86
2023/08/21 01:11:32;;;;;;;4.17;2.90;;;;;;;20.02;85.45;101468.59;5072379;28;20191;-86
2023/08/21 01:14:07;;;;;;;3.77;2.97;;;;;;;19.98;85.68;101469.84;5072281;28;20194;-85
2023/08/21 01:16:35;;;;;;;4.73;3.03;;;;;;;19.97;85.85;101466.28;5072461;28;20659;-85
2023/08/21 01:19:03;;;;;;;3.20;2.50;;;;;;;19.95;86.32;101462.84;5072595;28;20211;-85
2023/08/21 01:21:30;;;;;;;4.97;3.20;;;;;;;19.91;85.70;101469.53;5072695;28;20225;-85
2023/08/21 01:23:58;;;;;;;4.10;3.00;;;;;;;19.90;86.03;101469.66;5072275;28;20217;-85
2023/08/21 01:26:24;;;;;;;4.23;2.43;;;;;;;19.88;86.42;101474.38;5071891;28;20234;-85
2023/08/21 01:28:51;;;;;;;5.03;3.00;;;;;;;19.85;86.63;101467.41;5072524;28;20202;-86
2023/08/21 01:31:25;;;;;;;3.33;2.77;;;;;;;19.85;86.27;101477.34;5072613;28;20221;-85
2023/08/21 01:33:57;;;;;;;4.27;2.70;;;;;;;19.80;85.19;101477.75;5072389;28;20195;-85
2023/08/21 01:36:24;;;;;;;3.63;2.37;;;;;;;19.73;84.59;101479.28;5071954;28;20208;-84
2023/08/21 01:38:51;;;;;;;3.60;2.70;;;;;;;19.66;84.03;101484.38;5072464;28;20227;-85
2023/08/21 01:41:19;;;;;;;3.87;2.83;;;;;;;19.58;84.61;101469.84;5072501;28;20231;-84
2023/08/21 01:43:45;;;;;;;3.30;3.00;;;;;;;19.57;85.30;101473.53;5071453;28;20208;-84
2023/08/21 01:46:13;;;;;;;4.73;3.27;;;;;;;19.53;85.78;101463.97;5082688;28;20231;-85
2023/08/21 01:48:39;;;;;;;3.13;2.80;;;;;;;19.50;85.49;101462.41;5091666;28;20206;-84
2023/08/21 01:51:06;;;;;;;5.83;2.73;;;;;;;19.42;85.20;101460.34;5092004;28;20585;-84
2023/08/21 01:53:32;;;;;;;5.43;3.07;;;;;;;19.36;85.92;101460.88;5091829;28;20228;-84
2023/08/21 01:55:59;;;;;;;5.17;3.07;;;;;;;19.33;86.48;101463.88;5091915;28;20223;-85
2023/08/21 01:58:26;;;;;;;3.40;3.10;;;;;;;19.31;86.60;101463.13;5091852;28;20201;-84
2023/08/21 02:00:53;;;;;;;5.70;3.13;;;;;;;19.29;86.42;101465.13;5091665;28;20214;-85
2023/08/21 02:03:19;;;;;;;4.97;2.80;;;;;;;19.29;87.00;101469.66;5091677;28;20222;-85
2023/08/21 02:05:46;;;;;;;3.10;2.80;;;;;;;19.27;87.15;101471.63;5092033;28;20229;-85
2023/08/21 02:08:14;;;;;;;5.10;2.80;;;;;;;19.26;87.36;101480.72;5092372;28;20213;-84
2023/08/21 02:10:49;;;;;;;4.47;2.90;;;;;;;19.25;87.41;101474.47;5091471;28;20217;-84
2023/08/21 02:13:15;;;;;;;4.27;2.80;;;;;;;19.23;87.17;101479.13;5091850;28;20200;-84
2023/08/21 02:15:43;;;;;;;4.97;2.80;;;;;;;19.19;87.23;101479.53;5091657;28;20224;-84
2023/08/21 02:18:09;;;;;;;3.17;2.53;;;;;;;19.13;86.75;101478.25;5091915;28;20228;-84
2023/08/21 02:20:36;;;;;;;4.37;2.80;;;;;;;19.01;86.41;101476.56;5091646;28;20205;-85
2023/08/21 02:23:02;;;;;;;3.23;2.73;;;;;;;18.90;87.07;101473.94;5091469;28;20237;-84
2023/08/21 02:25:30;;;;;;;4.20;3.07;;;;;;;18.82;87.64;101476.44;5091535;28;20616;-84
2023/08/21 02:27:57;;;;;;;3.97;2.47;;;;;;;18.75;88.26;101472.56;5091800;28;20206;-85
2023/08/21 02:30:25;;;;;;;4.63;3.13;;;;;;;18.71;89.30;101470.09;5091990;28;20268;-84
2023/08/21 02:32:53;;;;;;;4.73;2.80;;;;;;;18.69;89.66;101468.53;5091807;28;20240;-85
2023/08/21 02:35:19;;;;;;;3.97;2.63;;;;;;;18.68;89.82;101458.72;5091270;28;20236;-84
2023/08/21 02:37:46;;;;;;;2.83;2.57;;;;;;;18.65;89.52;101457.13;5092516;28;20219;-84
2023/08/21 02:40:12;;;;;;;4.90;2.70;;;;;;;18.61;89.50;101466.50;5095555;28;20211;-84
2023/08/21 02:42:39;;;;;;;3.47;2.73;;;;;;;18.59;90.05;101471.16;5095325;28;20235;-84
2023/08/21 02:45:08;;;;;;;4.80;2.93;;;;;;;18.58;90.79;101474.81;5095142;28;20231;-85
2023/08/21 02:47:36;;;;;;;5.43;3.10;;;;;;;18.58;91.30;101474.81;5095678;28;20267;-85
2023/08/21 02:50:04;;;;;;;4.30;2.80;;;;;;;18.59;91.58;101473.00;5094912;28;20206;-84
2023/08/21 02:52:31;;;;;;;3.50;2.67;;;;;;;18.59;91.54;101471.16;5095319;28;20205;-84
2023/08/21 02:54:57;;;;;;;3.97;3.17;;;;;;;18.60;91.52;101472.00;5095506;28;20867;-84
2023/08/21 02:57:24;;;;;;;3.90;3.50;;;;;;;18.59;91.78;101470.28;5095470;28;20207;-84
2023/08/21 02:59:51;;;;;;;4.37;3.67;;;;;;;18.55;91.78;101464.25;5094743;28;20206;-84
2023/08/21 03:02:18;;;;;;;5.17;3.17;;;;;;;18.51;91.85;101468.19;5094750;28;20588;-83
2023/08/21 03:04:44;;;;;;;5.10;3.07;;;;;;;18.49;92.05;101469.31;5094637;28;20229;-84
2023/08/21 03:07:12;;;;;;;3.10;2.60;;;;;;;18.44;91.55;101466.16;5095311;28;20210;-85
2023/08/21 03:09:40;;;;;;;4.10;2.83;;;;;;;18.40;90.85;101473.63;5094937;28;20218;-83
2023/08/21 03:12:07;;;;;;;3.97;2.77;;;;;;;18.30;90.24;101473.53;5095132;28;20544;-84
2023/08/21 03:14:34;;;;;;;4.93;2.60;;;;;;;18.21;89.78;101476.13;5095040;28;20712;-84
2023/08/21 03:17:01;;;;;;;3.83;2.57;;;;;;;18.13;89.50;101479.44;5094580;28;20208;-84
2023/08/21 03:19:27;;;;;;;3.73;2.30;;;;;;;18.07;89.93;101479.13;5094419;28;20535;-83
2023/08/21 03:21:54;;;;;;;2.57;2.30;;;;;;;18.04;90.42;101478.38;5093961;28;20220;-84
2023/08/21 03:24:22;;;;;;;3.23;2.33;;;;;;;18.03;90.70;101479.38;5094167;28;20749;-85
2023/08/21 03:26:48;;;;;;;3.80;2.37;;;;;;;18.01;90.42;101485.84;5094041;28;20221;-84
2023/08/21 03:29:15;;;;;;;3.10;2.53;;;;;;;18.00;90.41;101492.22;5093773;28;20698;-84
2023/08/21 03:31:42;;;;;;;4.13;2.63;;;;;;;17.96;90.19;101474.59;5093959;28;20213;-84
2023/08/21 03:34:08;;;;;;;4.00;2.37;;;;;;;17.89;90.09;101481.47;5093882;28;20839;-83
2023/08/21 03:36:37;;;;;;;3.03;2.33;;;;;;;17.83;90.24;101482.81;5093519;28;20214;-83
2023/08/21 03:39:05;;;;;;;2.90;2.43;;;;;;;17.77;91.01;101472.50;5093354;28;20208;-84
2023/08/21 03:41:33;;;;;;;3.33;2.70;;;;;;;17.75;91.11;101481.69;5093805;28;20273;-84
2023/08/21 03:43:59;;;;;;;3.97;2.87;;;;;;;17.71;91.55;101478.41;5093690;28;20220;-85
2023/08/21 03:46:26;;;;;;;3.47;2.70;;;;;;;17.68;91.66;101484.03;5094063;28;20201;-84
2023/08/21 03:48:52;;;;;;;2.90;2.70;;;;;;;17.63;92.14;101472.75;5092898;28;20627;-84
2023/08/21 03:51:19;;;;;;;4.00;2.80;;;;;;;17.59;92.37;101471.25;5093659;28;20208;-83
2023/08/21 03:53:45;;;;;;;2.83;2.53;;;;;;;17.55;92.80;101469.81;5094669;28;20204;-83
2023/08/21 03:56:12;;;;;;;4.90;2.90;;;;;;;17.54;93.27;101470.78;5094774;28;20225;-83
2023/08/21 03:58:40;;;;;;;3.40;3.07;;;;;;;17.51;93.03;101460.25;5095087;28;20211;-83
2023/08/21 04:01:07;;;;;;;3.33;3.03;;;;;;;17.45;93.47;101464.28;5096652;28;20208;-84
2023/08/21 04:03:33;;;;;;;4.50;3.00;;;;;;;17.40;94.32;101458.41;5095006;28;20596;-84
2023/08/21 04:06:00;;;;;;;4.37;2.63;;;;;;;17.39;94.98;101469.28;5095136;28;20232;-83
2023/08/21 04:08:26;;;;;;;3.63;2.97;;;;;;;17.40;95.28;101471.00;5094775;28;20207;-84
2023/08/21 04:10:53;;;;;;;3.90;2.67;;;;;;;17.41;95.53;101478.09;5094722;28;20211;-83
2023/08/21 04:13:20;;;;;;;4.60;3.30;;;;;;;17.42;95.83;101480.69;5095077;28;20210;-84
2023/08/21 04:15:50;;;;;;;7.53;2.80;;;;;;;17.43;95.49;101490.47;5094636;28;20218;-84
2023/08/21 04:18:17;;;;;;;7.27;3.30;;;;;;;17.42;96.13;101491.47;5093776;28;20188;-86
2023/08/21 04:20:43;;;;;;;7.17;3.73;;;;;;;17.42;96.66;101498.69;5091646;28;20440;-84
2023/08/21 04:23:10;;;;;;;5.83;3.13;;;;;;;17.43;97.55;101490.47;5092910;28;20317;-84
2023/08/21 04:25:36;;;;;;;6.03;3.73;;;;;;;17.46;98.29;101490.25;5093183;28;20224;-86
2023/08/21 04:28:03;;;;;;;3.83;3.43;;;;;;;17.47;99.11;101489.25;5097271;28;20210;-88
2023/08/21 04:30:30;;;;;;;5.73;3.60;;;;;;;17.50;99.37;101490.88;5093773;28;20577;-86
2023/08/21 04:32:59;;;;;;;5.00;3.47;;;;;;;17.52;99.63;101503.22;5095536;28;20197;-86
2023/08/21 04:35:25;;;;;;;4.20;3.60;;;;;;;17.53;99.83;101502.25;5096158;28;20944;-87
2023/08/21 04:37:52;;;;;;;6.57;3.27;;;;;;;17.54;99.96;101498.59;5097026;28;20209;-87
2023/08/21 04:40:20;;;;;;;5.47;3.40;;;;;;;17.56;99.99;101495.75;5095899;28;20219;-87
2023/08/21 04:42:47;;;;;;;4.77;3.20;;;;;;;17.60;100.00;101502.59;5097017;28;20222;-86
2023/08/21 04:45:13;;;;;;;5.50;3.03;;;;;;;17.63;100.00;101503.22;5096054;28;20224;-86
2023/08/21 04:47:40;;;;;;;5.67;3.40;;;;;;;17.64;100.00;101510.38;5096962;28;20201;-87
2023/08/21 04:50:08;;;;;;;3.77;2.90;;;;;;;17.67;100.00;101503.88;5097061;28;20212;-85
2023/08/21 04:52:35;;;;;;;4.33;3.07;;;;;;;17.71;99.78;101505.34;5097781;28;20201;-84
2023/08/21 04:55:01;;;;;;;6.13;3.00;;;;;;;17.73;99.11;101502.53;5098000;28;20220;-86
2023/08/21 04:57:28;;;;;;;4.03;2.90;;;;;;;17.71;98.14;101508.06;5096885;28;20228;-86
2023/08/21 04:59:54;;;;;;;4.40;2.73;;;;;;;17.70;97.90;101503.66;5090615;28;20256;-87
2023/08/21 05:02:21;;;;;;;4.47;2.60;;;;;;;17.66;98.08;101510.25;5089086;28;20231;-87
2023/08/21 05:04:48;;;;;;;4.07;2.80;;;;;;;17.67;98.47;101509.28;5093678;28;20225;-87
2023/08/21 05:07:16;;;;;;;3.43;3.13;;;;;;;17.68;99.04;101516.38;5089796;28;20220;-87
2023/08/21 05:09:42;;;;;;;6.90;2.87;;;;;;;17.71;99.38;101509.88;5092794;28;20571;-87
2023/08/21 05:12:09;;;;;;;3.87;2.77;;;;;;;17.75;99.82;101514.03;5095626;28;20209;-86
2023/08/21 05:14:36;;;;;;;4.97;2.07;;;;;;;17.81;99.77;101518.94;5092604;28;20225;-86
2023/08/21 05:17:03;;;;;;;3.80;2.40;;;;;;;17.85;99.25;101523.97;5085829;28;20240;-85
2023/08/21 05:19:29;;;;;;;3.27;2.30;;;;;;;17.93;98.31;101524.19;5089331;28;20202;-85
2023/08/21 05:21:56;;;;;;;2.87;1.87;;;;;;;17.99;97.46;101526.41;5093402;28;20198;-88
2023/08/21 05:24:23;;;;;;;5.33;1.93;;;;;;;18.06;97.08;101524.09;5098957;28;20576;-82
2023/08/21 05:26:50;;;;;;;5.07;2.33;;;;;;;18.12;96.34;101520.88;5095372;28;20198;-82
2023/08/21 05:29:16;;;;;;;5.63;2.40;;;;;;;18.20;95.61;101513.03;5095317;28;20221;-84
2023/08/21 05:31:43;;;;;;;4.00;2.10;;;;;;;18.27;95.11;101516.91;5102467;28;20681;-83
2023/08/21 05:34:09;;;;;;;3.30;1.97;;;;;;;18.33;94.47;101524.53;5109435;28;20259;-84
2023/08/21 05:36:36;;;;;;;3.67;1.80;;;;;;;18.40;93.59;101522.19;5097187;28;20226;-84
2023/08/21 05:39:05;;;;;;;2.97;1.90;;;;;;;18.46;93.16;101521.66;5091624;28;20199;-84
2023/08/21 05:41:33;;;;;;;3.47;1.87;;;;;;;18.52;92.13;101523.84;5094951;28;20229;-84
2023/08/21 05:43:59;;;;;;;4.00;1.97;;;;;;;18.59;91.63;101525.09;5096695;28;20230;-84
2023/08/21 05:46:26;;;;;;;2.40;1.60;;;;;;;18.66;91.08;101526.28;5090238;28;20211;-85
2023/08/21 05:48:53;;;;;;;6.90;2.57;;;;;;;18.73;90.29;101521.25;5095897;28;20211;-84
2023/08/21 05:51:19;;;;;;;3.00;1.93;;;;;;;18.80;89.22;101521.59;5090443;28;20212;-84
2023/08/21 05:53:45;;;;;;;4.07;1.90;;;;;;;18.86;88.83;101532.72;5096081;28;20641;-84
2023/08/21 05:56:12;;;;;;;4.43;1.97;;;;;;;18.93;88.54;101530.38;5095935;28;20229;-84
2023/08/21 05:58:40;;;;;;;3.63;1.97;;;;;;;19.03;88.26;101544.78;5096039;28;20212;-84
2023/08/21 06:01:06;;;;;;;3.13;1.90;;;;;;;19.16;87.82;101545.50;5094989;28;20221;-84
2023/08/21 06:03:33;;;;;;;2.60;1.77;;;;;;;19.29;87.16;101547.97;5097036;28;20235;-84
2023/08/21 06:05:59;;;;;;;2.73;1.90;;;;;;;19.39;86.67;101555.16;5093361;28;20232;-84
2023/08/21 06:08:26;;;;;;;3.40;2.00;;;;;;;19.50;85.42;101548.03;5093057;28;20206;-84
2023/08/21 06:10:52;;;;;;;2.70;1.80;;;;;;;19.58;84.18;101551.75;5097806;28;20209;-84
2023/08/21 06:13:19;;;;;;;3.70;2.00;;;;;;;19.63;82.73;101548.66;5097475;28;20204;-84
2023/08/21 06:15:47;;;;;;;3.47;2.00;;;;;;;19.66;82.47;101551.09;5099347;28;20642;-84
2023/08/21 06:18:14;;;;;;;3.90;2.07;;;;;;;19.71;82.52;101541.56;5092980;28;20207;-85
2023/08/21 06:20:42;;;;;;;6.00;1.90;;;;;;;19.82;83.03;101546.06;5093356;28;20211;-85
2023/08/21 06:23:08;;;;;;;5.43;2.03;;;;;;;19.91;82.83;101556.03;5099783;28;20231;-84
2023/08/21 06:25:35;;;;;;;5.70;1.90;;;;;;;20.02;82.69;101555.97;5099127;28;20233;-84
2023/08/21 06:28:01;;;;;;;4.57;1.80;;;;;;;20.15;82.10;101554.88;5095350;28;20203;-84
2023/08/21 06:30:28;;;;;;;2.57;1.83;;;;;;;20.23;81.22;101558.63;5098954;28;20207;-83
2023/08/21 06:32:56;;;;;;;3.30;2.00;;;;;;;20.34;80.47;101554.94;5097855;28;20671;-84
2023/08/21 06:35:23;;;;;;;3.77;1.60;;;;;;;20.45;80.03;101547.56;5100930;28;20234;-84
2023/08/21 06:37:49;;;;;;;4.30;1.98;;;;;;;20.58;79.18;101552.75;5096230;28;20744;-85
2023/08/21 06:40:16;;;;;;;3.40;1.83;;;;;;;20.72;78.43;101554.19;5098895;28;20226;-84
2023/08/21 06:42:42;;;;;;;2.67;1.60;;;;;;;20.83;78.28;101550.47;5100296;28;20200;-85
2023/08/21 06:45:09;;;;;;;3.17;1.50;;;;;;;20.94;76.68;101553.06;5097301;28;20228;-85
2023/08/21 06:47:36;;;;;;;2.63;1.80;;;;;;;21.05;75.86;101552.91;5095676;28;20212;-85
2023/08/21 06:50:04;;;;;;;4.10;2.10;;;;;;;21.20;75.93;101556.91;5095421;28;20203;-84
2023/08/21 06:52:30;;;;;;;4.38;1.67;;;;;;;21.31;74.69;101556.78;5101076;28;20212;-84
2023/08/21 06:54:57;;;;;;;3.35;1.92;;;;;;;21.40;73.68;101555.91;5100751;28;20224;-85
2023/08/21 06:57:23;;;;;;;3.65;2.33;;;;;;;21.49;73.33;101554.19;5096304;28;20295;-83
2023/08/21 06:59:50;;;;;;;5.60;2.00;;;;;;;21.52;73.19;101553.88;5099589;28;20200;-84
2023/08/21 07:02:16;;;;;;;4.82;2.05;;;;;;;21.54;72.77;101553.72;5095299;28;20232;-85
2023/08/21 07:04:43;;;;;;;2.08;1.85;;;;;;;21.55;72.64;101555.44;5098685;28;20232;-84
2023/08/21 07:07:11;;;;;;;4.45;2.10;;;;;;;21.55;72.50;101560.88;5098701;28;20212;-84
2023/08/21 07:09:37;;;;;;;5.78;1.83;;;;;;;21.55;73.07;101569.00;5098021;28;20694;-84
2023/08/21 07:12:04;;;;;;;6.00;2.40;;;;;;;21.59;73.89;101565.00;5096551;28;20200;-84
2023/08/21 07:14:31;;;;;;;6.63;2.13;;;;;;;21.65;74.13;101569.84;5094487;28;20226;-85
2023/08/21 07:16:57;;;;;;;5.15;2.58;;;;;;;21.70;73.81;101572.94;5090677;28;20214;-85
2023/08/21 07:19:24;;;;;;;4.47;2.00;;;;;;;21.75;73.51;101567.94;5094390;28;20207;-84
2023/08/21 07:21:50;;;;;;;4.68;2.47;;;;;;;21.79;72.66;101558.53;5091661;28;20644;-84
2023/08/21 07:24:18;;;;;;;5.22;2.20;;;;;;;21.79;72.25;101563.94;5094905;28;20699;-84
2023/08/21 07:26:44;;;;;;;3.90;2.00;;;;;;;21.82;72.62;101563.66;5095008;28;20606;-84
2023/08/21 07:29:11;;;;;;;4.97;1.90;;;;;;;21.85;72.66;101565.22;5095337;28;20247;-84
2023/08/21 07:31:37;;;;;;;4.47;2.00;;;;;;;21.87;72.16;101571.31;5095211;28;20204;-83
2023/08/21 07:34:04;;;;;;;4.57;2.00;;;;;;;21.89;72.50;101575.59;5096015;28;20222;-83
2023/08/21 07:36:32;;;;;;;3.08;1.70;;;;;;;21.97;72.71;101570.31;5094679;28;20208;-84
2023/08/21 07:38:59;;;;;;;3.88;2.00;;;;;;;22.04;72.69;101576.00;5088207;28;20203;-84
2023/08/21 07:41:26;;;;;;;5.50;2.47;;;;;;;22.08;72.46;101578.28;5094732;28;20211;-83
2023/08/21 07:43:53;;;;;;;4.30;2.55;;;;;;;22.14;72.63;101574.97;5092425;28;20223;-84
2023/08/21 07:46:19;;;;;;;6.25;2.45;;;;;;;22.21;72.42;101583.38;5093478;28;20224;-83
2023/08/21 07:48:46;;;;;;;3.10;1.92;;;;;;;22.29;72.35;101578.03;5094534;28;20207;-83
2023/08/21 07:51:13;;;;;;;5.80;2.20;;;;;;;22.34;72.08;101580.31;5094842;28;20215;-83
2023/08/21 07:53:39;;;;;;;4.07;2.58;;;;;;;22.43;72.05;101576.69;5094594;28;20211;-83
2023/08/21 07:56:06;;;;;;;4.75;2.08;;;;;;;22.54;71.19;101579.19;5089159;28;20858;-84
2023/08/21 07:58:34;;;;;;;2.97;1.55;;;;;;;22.67;71.02;101576.97;5091441;28;20203;-84
2023/08/21 08:01:01;;;;;;;3.85;2.33;;;;;;;22.80;70.41;101580.19;5093667;28;20211;-85
2023/08/21 08:03:27;;;;;;;5.13;2.30;;;;;;;22.91;69.78;101575.56;5094331;28;20282;-84
2023/08/21 08:05:54;;;;;;;6.93;1.98;;;;;;;22.97;68.85;101575.78;5093897;28;20223;-84
2023/08/21 08:08:20;;;;;;;4.82;2.00;;;;;;;23.06;68.17;101579.44;5093945;28;20216;-84
2023/08/21 08:10:47;;;;;;;6.72;2.35;;;;;;;23.13;67.63;101575.06;5093841;28;20200;-84
2023/08/21 08:13:13;;;;;;;5.97;2.00;;;;;;;23.20;67.73;101571.56;5095394;28;20200;-84
2023/08/21 08:15:41;;;;;;;6.57;2.13;;;;;;;23.30;67.57;101571.47;5094084;28;20231;-84
2023/08/21 08:18:12;;;;;;;4.63;2.05;;;;;;;23.39;67.67;101567.81;5090449;28;20291;-84
2023/08/21 08:20:39;;;;;;;5.40;1.95;;;;;;;23.48;66.35;101563.28;5090919;28;20210;-84
2023/08/21 08:23:05;;;;;;;4.38;2.47;;;;;;;23.52;65.99;101568.28;5093539;28;20215;-84
2023/08/21 08:25:32;;;;;;;3.38;1.70;;;;;;;23.56;65.06;101571.56;5092925;28;20224;-83
2023/08/21 08:27:58;;;;;;;4.07;1.73;;;;;;;23.60;64.72;101566.66;5093523;28;20196;-84
2023/08/21 08:30:25;;;;;;;4.30;1.85;;;;;;;23.67;64.86;101568.56;5089207;28;20678;-84
2023/08/21 08:32:53;;;;;;;5.00;2.10;;;;;;;23.72;64.33;101582.53;5093550;28;20582;-83
2023/08/21 08:35:19;;;;;;;4.97;1.77;;;;;;;23.79;64.55;101577.31;5095803;28;20234;-83
2023/08/21 08:37:45;;;;;;;5.63;2.20;;;;;;;23.86;63.96;101581.09;5091934;28;20204;-84
2023/08/21 08:40:12;;;;;;;5.07;2.25;;;;;;;23.87;60.13;101582.78;5093733;28;20212;-84
2023/08/21 08:42:39;;;;;;;5.63;1.80;;;;;;;23.89;59.10;101578.91;5092497;28;20564;-83
2023/08/21 08:45:06;;;;;;;5.10;2.03;;;;;;;23.94;57.90;101580.28;5093118;28;20223;-84
2023/08/21 08:47:34;;;;;;;3.78;1.80;;;;;;;23.97;56.93;101579.97;5093344;28;20203;-84
2023/08/21 08:50:04;;;;;;;2.80;1.35;;;;;;;23.98;56.47;101574.38;5093181;28;20204;-83
2023/08/21 08:52:34;;;;;;;5.70;1.88;;;;;;;24.03;57.37;101573.88;5093338;28;20208;-84
2023/08/21 08:55:01;;;;;;;3.70;1.75;;;;;;;24.10;57.58;101572.22;5092890;28;20232;-84
2023/08/21 08:57:28;;;;;;;3.40;1.65;;;;;;;24.20;57.33;101575.66;5093100;28;20204;-84
2023/08/21 08:59:54;;;;;;;6.50;1.70;;;;;;;24.27;57.58;101574.03;5091282;28;20204;-84
2023/08/21 09:02:21;;;;;;;4.88;1.70;;;;;;;24.32;56.76;101562.66;5098184;28;20674;-84
2023/08/21 09:04:47;;;;;;;4.20;1.40;;;;;;;24.36;57.33;101558.59;5093097;28;20231;-84
2023/08/21 09:07:18;;;;;;;3.42;0.95;;;;;;;24.39;56.49;101564.53;5096277;28;20699;-84
2023/08/21 09:09:49;;;;;;;3.97;1.60;;;;;;;24.50;55.18;101563.41;5096552;28;20212;-84
2023/08/21 09:12:15;;;;;;;3.47;1.67;;;;;;;24.55;53.94;101566.44;5093487;28;20718;-83
2023/08/21 09:14:43;;;;;;;3.28;1.27;;;;;;;24.60;53.62;101572.25;5098543;28;20230;-84
2023/08/21 09:17:10;;;;;;;4.05;1.60;;;;;;;24.64;54.90;101565.47;5095479;28;20207;-83
2023/08/21 09:19:36;;;;;;;3.38;1.38;;;;;;;24.70;54.66;101561.22;5093638;28;20568;-84
2023/08/21 09:22:10;;;;;;;3.55;1.20;;;;;;;24.73;55.04;101550.84;5089801;28;20747;-84
2023/08/21 09:24:39;;;;;;;3.20;1.25;;;;;;;24.84;54.22;101555.13;5092192;28;20238;-83
2023/08/21 09:27:14;;;;;;;3.53;1.30;;;;;;;24.97;53.22;101555.50;5091819;28;20207;-84
2023/08/21 09:29:41;;;;;;;4.22;1.13;;;;;;;25.08;52.46;101559.78;5092410;28;20208;-83
2023/08/21 09:32:08;;;;;;;4.10;1.38;;;;;;;25.17;51.38;101556.03;5091611;28;20204;-84
2023/08/21 09:34:36;;;;;;;6.03;1.17;;;;;;;25.23;51.46;101549.91;5093246;28;20227;-84
2023/08/21 09:37:06;;;;;;;4.30;1.05;;;;;;;25.35;51.55;101545.81;5090879;28;20201;-83
2023/08/21 09:39:34;;;;;;;6.05;1.40;;;;;;;25.52;50.27;101546.63;5093100;28;20582;-84
2023/08/21 09:42:02;;;;;;;3.97;1.25;;;;;;;25.66;49.81;101553.28;5092095;28;20205;-84
2023/08/21 09:44:28;;;;;;;5.10;1.25;;;;;;;25.72;48.89;101552.59;5091919;28;20790;-84
2023/08/21 09:46:55;;;;;;;4.40;1.42;;;;;;;25.80;49.19;101547.09;5090277;28;20317;-84
2023/08/21 09:49:22;;;;;;;5.57;1.02;;;;;;;25.91;49.11;101552.22;5096824;28;20210;-84
2023/08/21 09:51:49;;;;;;;4.50;1.02;;;;;;;25.99;48.68;101552.16;5094510;28;20207;-84
2023/08/21 09:54:15;;;;;;;4.43;1.30;;;;;;;26.13;49.33;101548.72;5095681;28;20643;-84
2023/08/21 09:56:43;;;;;;;2.20;1.00;;;;;;;26.31;48.36;101547.66;5092537;28;20207;-84
2023/08/21 09:59:12;;;;;;;9.27;1.52;;;;;;;26.42;47.83;101545.38;5095630;28;20207;-84
2023/08/21 10:01:39;;;;;;;3.20;1.08;;;;;;;26.52;47.34;101532.31;5095486;28;20207;-83
2023/08/21 10:04:07;;;;;;;2.97;1.10;;;;;;;26.68;47.16;101523.19;5093439;28;20246;-83
2023/08/21 10:06:36;;;;;;;3.85;1.38;;;;;;;26.84;47.60;101538.63;5087562;28;20200;-84
2023/08/21 10:09:03;;;;;;;4.88;1.02;;;;;;;26.95;45.78;101541.81;5088891;28;20646;-84
2023/08/21 10:11:30;;;;;;;4.22;1.20;;;;;;;27.02;46.11;101543.81;5097448;28;20679;-82
2023/08/21 10:13:57;;;;;;;7.32;1.45;;;;;;;27.08;45.49;101540.34;5094599;28;20207;-83
2023/08/21 10:16:25;;;;;;;2.80;1.08;;;;;;;27.12;45.66;101541.69;5098642;28;20220;-82
2023/08/21 10:18:52;;;;;;;5.57;1.25;;;;;;;27.18;45.30;101544.53;5107055;28;20212;-84
2023/08/21 10:21:20;;;;;;;3.78;1.25;;;;;;;27.26;44.56;101536.25;5107948;28;20442;-84
2023/08/21 10:23:48;;;;;;;4.85;1.20;;;;;;;27.37;45.64;101545.91;5107356;28;20211;-83
2023/08/21 10:26:15;;;;;;;5.82;1.55;;;;;;;27.49;44.94;101532.63;5103396;28;20215;-84
2023/08/21 10:31:35;;;;;;;2.30;1.00;;;;;;;27.69;45.32;101535.69;5090612;28;20219;-82
2023/08/21 10:34:03;;;;;;;3.83;1.20;;;;;;;27.73;45.01;101528.81;5094861;28;20580;-83
2023/08/21 10:37:12;;;;;;;6.93;1.48;;;;;;;27.68;44.80;101534.84;5089842;28;20225;-83
2023/08/21 10:39:39;;;;;;;4.47;1.17;;;;;;;27.71;45.24;101536.38;5093945;28;20240;-83
2023/08/21 10:42:08;;;;;;;3.60;1.38;;;;;;;27.73;46.41;101539.78;5094798;28;20207;-82
2023/08/21 10:44:48;;;;;;;4.32;1.70;;;;;;;27.75;45.89;101535.81;5094046;28;20259;-84
2023/08/21 10:47:18;;;;;;;6.88;1.30;;;;;;;27.75;45.95;101534.97;5093383;28;20241;-83
2023/08/21 10:49:46;;;;;;;5.57;1.45;;;;;;;27.80;45.62;101527.00;5089925;28;20226;-84
2023/08/21 10:52:12;;;;;;;5.22;1.23;;;;;;;27.81;45.34;101534.19;5094200;28;20204;-83
2023/08/21 10:54:47;;;;;;;2.30;1.23;;;;;;;27.81;44.91;101539.66;5094005;28;20224;-82
2023/08/21 10:57:14;;;;;;;3.63;1.23;;;;;;;27.77;44.36;101530.97;5089648;28;20664;-83
2023/08/21 10:59:50;;;;;;;2.90;1.27;;;;;;;27.82;44.52;101527.69;5094727;28;20231;-84
2023/08/21 11:02:18;;;;;;;3.90;1.27;;;;;;;27.87;44.07;101509.66;5093908;28;20203;-83
2023/08/21 11:04:45;;;;;;;4.70;1.42;;;;;;;27.90;43.43;101519.38;5094330;28;20228;-82
2023/08/21 11:07:12;;;;;;;4.35;1.45;;;;;;;27.90;44.01;101511.16;5092899;28;20212;-82
2023/08/21 11:09:39;;;;;;;2.47;0.90;;;;;;;27.94;43.61;101520.72;5094412;28;20207;-83
2023/08/21 11:12:10;;;;;;;2.72;1.20;;;;;;;27.99;44.56;101526.44;5086970;28;20196;-83
2023/08/21 11:14:38;;;;;;;4.57;1.50;;;;;;;28.08;44.45;101516.25;5094384;28;20806;-82
2023/08/21 11:17:05;;;;;;;6.25;1.65;;;;;;;28.11;44.33;101514.00;5083571;28;20215;-82
2023/08/21 11:19:34;;;;;;;4.72;1.48;;;;;;;28.17;44.24;101515.94;5093847;28;20204;-82
2023/08/21 11:22:04;;;;;;;3.10;1.25;;;;;;;28.19;43.66;101519.38;5094288;28;20229;-82
2023/08/21 11:24:32;;;;;;;3.53;1.20;;;;;;;28.17;44.29;101518.69;5094667;28;20643;-83
2023/08/21 11:26:58;;;;;;;4.43;1.88;;;;;;;28.24;44.48;101516.91;5093472;28;20200;-83